Welkom op de website van Weerstation Hoek van Holland.

Onweer radar Meer informatie blitzortung!


Regen radar Meer informatie rain snow radar



METAR rapporten vliegvelden

   
EHRD - Rotterdam International Airport, NL
Afstand tot: Oost 31 km
Gewijzigd: 09-08-2020 04:25
Licht bewolkt  
Licht bewolkt  
   Wind: NNO 1.9 km/h
Wind: NNO 1.9 km/h
Temperatuur: 21°C
Dauwpunt: 19°C
Vochtigheid: 88%
Barometer: 1018 hPa
Bewolking: Few Clouds
Zicht: meer dan 10 km
Bewolking: Licht bewolkt 1500 ft
EHRD 090225Z AUTO 02001KT 9999 FEW015CB 21/19 Q1018 NOSIG
EHAM - Amsterdam Schiphol, NL
Afstand tot: Noord 17 km
Gewijzigd: 09-08-2020 04:25
Helder  
Helder  
   Wind: NNO 7.4 km/h
Wind: NNO 7.4 km/h
Temperatuur: 22°C
Dauwpunt: 19°C
Vochtigheid: 83%
Barometer: 1018 hPa
Zicht: meer dan 10 km
Bewolking: Helder ft
EHAM 090225Z 02004KT 350V050 CAVOK 22/19 Q1018 NOSIG
EBAW - Antwerpen/Deurne, B
Afstand tot: Zuid 138 km
Gewijzigd: 09-08-2020 04:20
Helder  
Helder  
   Wind: ONO 5.6 km/h
Wind: ONO 5.6 km/h
Temperatuur: 24°C
Dauwpunt: 16°C
Vochtigheid: 61%
Barometer: 1017 hPa
Zicht: meer dan 10 km
Bewolking: Helder ft
EBAW 090220Z AUTO 06003KT CAVOK 24/16 Q1017
EHEH - Eindhoven, NL
Afstand tot: OZO 140 km
Gewijzigd: 09-08-2020 04:25
Bewolking  
Bewolking  
   Wind: NNO 7.4 km/h
Wind: NNO 7.4 km/h
Temperatuur: 23°C
Dauwpunt: 17°C
Vochtigheid: 69%
Barometer: 1018 hPa
Bewolking: Overcast
Zicht: meer dan 10 km
Bewolking: Bewolking 12000 ft
EHEH 090225Z AUTO 02004KT 350V050 9999 OVC120 23/17 Q1018 BLU
  

Script ontwikkeld door  Saratoga-weather.org Aangepast voor de template door  Weerstation Leuven

Apparatuur in gebruik:

Weerstation
Davis VP2

Weerprogramma
Meteobridge

Weercomputer
meteobridge met meteostick

Webleverancier
Strato

Davis VP2

Meteobridge

meteobridge met meteostick

Strato